Time;durP1;ratioP1;P1;durP2;ratioP2;P2;SDS_P1;SDS_P2;PMS_P1;PMS_P2;Temp;Humidity;BMP_temperature;BMP_pressure;BME280_temperature;BME280_humidity;BME280_pressure;Samples;Min_cycle;Max_cycle;Signal;HPM_P1;HPM_P2
2021/05/30 00:02:16;;;;;;;7.05;4.22;;;14.30;99.90;;;;;;5012842;28;20041;-53
2021/05/30 00:04:44;;;;;;;5.90;4.50;;;14.40;99.90;;;;;;5012926;28;20097;-54
2021/05/30 00:07:12;;;;;;;4.50;3.45;;;14.60;99.90;;;;;;5013026;28;20367;-53
2021/05/30 00:09:39;;;;;;;5.07;4.00;;;14.80;99.90;;;;;;5012838;28;20502;-54
2021/05/30 00:12:08;;;;;;;4.68;3.70;;;15.10;99.90;;;;;;5012913;28;20053;-53
2021/05/30 00:14:36;;;;;;;6.82;4.10;;;15.20;99.90;;;;;;5012905;28;20030;-54
2021/05/30 00:17:04;;;;;;;5.00;4.30;;;15.30;99.90;;;;;;5012941;28;20026;-54
2021/05/30 00:19:31;;;;;;;5.25;3.95;;;15.60;99.90;;;;;;5012705;28;20084;-54
2021/05/30 00:21:59;;;;;;;6.70;4.20;;;15.30;99.90;;;;;;4995057;28;20121;-54
2021/05/30 00:24:26;;;;;;;6.07;4.32;;;15.50;99.90;;;;;;5012748;28;20342;-55
2021/05/30 00:26:53;;;;;;;5.20;4.80;;;15.40;99.90;;;;;;5012472;28;20759;-54
2021/05/30 00:29:21;;;;;;;6.43;5.07;;;15.60;99.90;;;;;;5014932;28;20055;-51
2021/05/30 00:31:48;;;;;;;7.95;4.93;;;15.30;99.90;;;;;;5016533;28;20018;-50
2021/05/30 00:34:15;;;;;;;8.50;5.47;;;15.20;99.90;;;;;;5016370;28;20485;-51
2021/05/30 00:36:43;;;;;;;5.70;5.15;;;15.40;99.90;;;;;;5016591;28;20033;-53
2021/05/30 00:39:10;;;;;;;6.03;4.82;;;15.20;99.90;;;;;;5016323;28;20022;-52
2021/05/30 00:41:37;;;;;;;11.70;5.15;;;15.40;99.90;;;;;;5016134;28;20610;-54
2021/05/30 00:44:36;;;;;;;7.97;4.60;;;15.40;99.90;;;;;;5016228;28;20053;-52
2021/05/30 00:47:04;;;;;;;8.75;4.80;;;15.40;99.90;;;;;;5016318;28;20030;-52
2021/05/30 00:49:31;;;;;;;11.80;5.40;;;15.30;99.90;;;;;;5015970;28;20054;-54
2021/05/30 00:51:59;;;;;;;8.10;5.20;;;15.40;99.90;;;;;;5015786;28;20025;-54
2021/05/30 00:54:27;;;;;;;9.88;4.70;;;15.40;99.90;;;;;;5016057;28;20029;-50
2021/05/30 00:56:54;;;;;;;8.18;4.60;;;15.50;99.90;;;;;;5015973;28;20044;-49
2021/05/30 00:59:21;;;;;;;11.35;4.40;;;15.30;99.90;;;;;;5015995;28;20050;-49
2021/05/30 01:01:49;;;;;;;6.60;4.43;;;15.30;99.90;;;;;;5015861;28;20034;-52
2021/05/30 01:04:17;;;;;;;7.55;5.13;;;15.30;99.90;;;;;;5015867;28;20029;-53
2021/05/30 01:06:44;;;;;;;4.85;4.22;;;15.60;99.90;;;;;;5015734;28;20030;-52
2021/05/30 01:09:12;;;;;;;7.30;4.10;;;15.90;99.90;;;;;;4998110;28;20025;-56
2021/05/30 01:11:39;;;;;;;7.60;4.40;;;16.30;99.90;;;;;;5015836;28;20021;-57
2021/05/30 01:14:10;;;;;;;5.40;4.10;;;16.60;99.90;;;;;;5015769;28;20513;-57
2021/05/30 01:16:38;;;;;;;5.55;4.22;;;17.10;99.90;;;;;;4998483;28;20044;-54
2021/05/30 01:19:08;;;;;;;4.72;4.18;;;17.40;99.90;;;;;;5015217;28;20041;-53
2021/05/30 01:21:35;;;;;;;;;;;17.20;99.90;;;;;;5015657;28;20032;-56
2021/05/30 01:24:02;;;;;;;6.93;3.85;;;16.80;99.90;;;;;;5015838;28;19948;-56
2021/05/30 01:26:30;;;;;;;8.15;4.35;;;16.50;99.90;;;;;;5015545;28;20478;-56
2021/05/30 01:28:57;;;;;;;11.50;5.25;;;16.40;99.90;;;;;;5015494;28;20026;-54
2021/05/30 01:31:25;;;;;;;8.10;4.82;;;16.60;99.90;;;;;;5015644;28;20394;-55
2021/05/30 01:33:52;;;;;;;6.25;3.75;;;16.90;99.90;;;;;;5015465;28;20030;-51
2021/05/30 01:36:19;;;;;;;11.05;4.60;;;17.00;99.90;;;;;;5015429;28;20026;-56
2021/05/30 01:38:47;;;;;;;9.18;4.18;;;16.80;99.90;;;;;;5015041;28;20026;-53
2021/05/30 01:41:14;;;;;;;4.85;3.83;;;16.70;99.90;;;;;;5015183;28;20057;-53
2021/05/30 01:43:41;;;;;;;4.90;3.45;;;17.00;99.90;;;;;;5015156;28;20014;-55
2021/05/30 01:46:09;;;;;;;4.75;4.03;;;17.20;99.90;;;;;;5015112;28;20044;-52
2021/05/30 01:48:36;;;;;;;4.88;3.60;;;17.10;99.90;;;;;;4997809;28;20105;-54
2021/05/30 01:51:04;;;;;;;4.63;3.63;;;16.70;99.90;;;;;;5015010;28;20054;-54
2021/05/30 01:53:39;;;;;;;5.28;3.95;;;16.60;99.90;;;;;;5014944;28;20053;-55
2021/05/30 01:58:33;;;;;;;6.50;3.72;;;16.90;99.90;;;;;;5014931;28;20506;-48
2021/05/30 02:01:01;;;;;;;6.68;3.65;;;16.90;99.90;;;;;;5014823;28;20054;-49
2021/05/30 02:03:30;;;;;;;7.25;3.97;;;16.90;99.90;;;;;;4997198;28;20105;-54
2021/05/30 02:06:00;;;;;;;4.10;3.45;;;16.80;99.90;;;;;;5014719;28;20487;-54
2021/05/30 02:08:31;;;;;;;6.28;3.65;;;16.90;99.90;;;;;;4997016;28;20054;-49
2021/05/30 02:10:58;;;;;;;;;;;17.10;99.90;;;;;;5015051;28;20112;-49
2021/05/30 02:13:28;;;;;;;5.53;3.80;;;17.10;99.90;;;;;;5014564;28;19905;-55
2021/05/30 02:15:55;;;;;;;6.97;4.00;;;17.50;99.90;;;;;;5014581;28;20026;-56
2021/05/30 02:18:22;;;;;;;6.40;3.45;;;17.60;99.90;;;;;;5014491;28;20380;-53
2021/05/30 02:20:50;;;;;;;5.47;3.92;;;17.50;99.50;;;;;;5014385;28;20018;-54
2021/05/30 02:23:18;;;;;;;8.35;4.35;;;17.10;99.90;;;;;;5014470;28;20018;-56
2021/05/30 02:25:46;;;;;;;5.57;3.80;;;16.80;99.90;;;;;;5014277;28;20098;-55
2021/05/30 02:28:13;;;;;;;8.25;4.78;;;16.80;99.90;;;;;;5014404;28;20088;-55
2021/05/30 02:30:40;;;;;;;5.10;4.40;;;16.80;99.90;;;;;;5014151;28;20136;-57
2021/05/30 02:33:08;;;;;;;7.00;4.40;;;17.00;99.90;;;;;;5014365;28;20450;-55
2021/05/30 02:35:35;;;;;;;9.18;4.50;;;17.00;99.90;;;;;;5014323;28;20097;-57
2021/05/30 02:38:04;;;;;;;12.77;4.50;;;17.10;99.90;;;;;;5014018;28;20030;-57
2021/05/30 02:40:31;;;;;;;7.50;3.58;;;17.00;99.90;;;;;;5014060;28;20164;-57
2021/05/30 02:42:59;;;;;;;9.05;3.80;;;16.70;99.90;;;;;;5014188;28;20048;-56
2021/05/30 02:45:26;;;;;;;7.65;3.88;;;16.40;99.90;;;;;;5013857;28;20030;-55
2021/05/30 02:47:53;;;;;;;6.03;3.55;;;16.20;99.90;;;;;;5013966;28;20029;-56
2021/05/30 02:50:21;;;;;;;4.60;3.30;;;15.90;99.90;;;;;;5013955;28;20026;-55
2021/05/30 02:52:48;;;;;;;6.18;3.53;;;15.90;99.90;;;;;;5013512;28;20393;-56
2021/05/30 02:55:16;;;;;;;4.90;3.40;;;16.10;99.90;;;;;;5013957;28;20088;-56
2021/05/30 02:57:43;;;;;;;3.50;3.20;;;16.30;99.90;;;;;;5014010;28;20029;-56
2021/05/30 03:00:11;;;;;;;4.53;4.10;;;16.70;99.90;;;;;;5013332;28;20458;-53
2021/05/30 03:02:38;;;;;;;8.27;3.75;;;16.70;99.90;;;;;;5013399;28;20033;-55
2021/05/30 03:05:07;;;;;;;24.63;4.28;;;16.60;99.90;;;;;;5013831;28;20474;-55
2021/05/30 03:07:34;;;;;;;5.53;3.90;;;16.60;99.90;;;;;;5013642;28;20033;-56
2021/05/30 03:10:02;;;;;;;6.78;4.57;;;16.70;99.90;;;;;;5013700;28;20021;-55
2021/05/30 03:12:29;;;;;;;5.35;4.80;;;16.50;99.90;;;;;;5013453;28;20034;-52
2021/05/30 03:14:56;;;;;;;8.50;6.30;;;15.90;99.90;;;;;;5013760;28;20076;-57
2021/05/30 03:17:24;;;;;;;10.02;6.47;;;15.50;99.90;;;;;;5013579;28;20022;-56
2021/05/30 03:19:51;;;;;;;7.20;5.82;;;15.50;99.90;;;;;;5013532;28;20026;-57
2021/05/30 03:22:20;;;;;;;6.55;4.90;;;15.30;99.90;;;;;;5013290;28;20026;-56
2021/05/30 03:24:48;;;;;;;8.70;5.45;;;15.10;99.90;;;;;;5013365;28;20538;-56
2021/05/30 03:27:15;;;;;;;8.25;5.18;;;15.20;99.90;;;;;;5013167;28;20033;-55
2021/05/30 03:29:43;;;;;;;9.70;5.50;;;15.20;99.90;;;;;;5013198;28;20049;-55
2021/05/30 03:32:10;;;;;;;8.02;5.22;;;15.40;99.90;;;;;;5013216;28;20498;-55
2021/05/30 03:34:37;;;;;;;6.90;5.03;;;15.50;99.90;;;;;;5013212;28;20109;-58
2021/05/30 03:37:05;;;;;;;7.80;4.38;;;15.50;99.90;;;;;;5013326;28;20105;-54
2021/05/30 03:39:34;;;;;;;5.40;4.85;;;15.40;99.90;;;;;;5013438;28;20549;-55
2021/05/30 03:42:07;;;;;;;6.38;5.03;;;15.60;99.90;;;;;;5013114;28;20030;-53
2021/05/30 03:44:35;;;;;;;7.13;4.30;;;15.50;99.90;;;;;;5012992;28;20037;-55
2021/05/30 03:47:03;;;;;;;8.40;4.55;;;15.50;99.90;;;;;;5013228;28;20382;-55
2021/05/30 03:49:30;;;;;;;5.10;4.63;;;15.80;99.90;;;;;;5012906;28;20026;-54
2021/05/30 03:51:58;;;;;;;8.27;6.07;;;15.40;99.90;;;;;;4995431;28;20116;-56
2021/05/30 03:54:25;;;;;;;8.68;5.85;;;15.40;99.90;;;;;;5013089;28;20552;-54
2021/05/30 03:56:53;;;;;;;7.45;5.50;;;15.50;99.90;;;;;;5012944;28;20026;-54
2021/05/30 03:59:20;;;;;;;9.57;6.03;;;15.50;99.90;;;;;;5012822;28;20113;-55
2021/05/30 04:01:48;;;;;;;7.88;6.10;;;15.60;99.90;;;;;;5013036;28;20498;-52
2021/05/30 04:04:15;;;;;;;6.30;5.47;;;15.50;99.90;;;;;;5016946;28;20061;-53
2021/05/30 04:06:42;;;;;;;5.28;4.78;;;15.50;99.90;;;;;;5016959;28;20056;-56
2021/05/30 04:09:10;;;;;;;8.35;5.57;;;15.40;99.90;;;;;;5017048;28;20080;-54
2021/05/30 04:11:37;;;;;;;5.40;4.90;;;15.40;99.90;;;;;;5017104;28;20077;-55
2021/05/30 04:14:04;;;;;;;5.47;4.97;;;15.40;99.90;;;;;;5017237;28;20033;-51
2021/05/30 04:16:32;;;;;;;6.25;5.35;;;15.40;99.90;;;;;;5016623;28;20038;-55
2021/05/30 04:18:59;;;;;;;7.60;5.53;;;15.50;99.90;;;;;;5016742;28;20029;-56
2021/05/30 04:21:26;;;;;;;6.85;6.10;;;15.70;99.90;;;;;;5016705;28;20026;-57
2021/05/30 04:23:54;;;;;;;6.35;5.75;;;15.60;99.90;;;;;;5016739;28;20483;-57
2021/05/30 04:26:21;;;;;;;7.22;5.82;;;15.50;99.90;;;;;;5016672;28;20443;-56
2021/05/30 04:28:48;;;;;;;6.70;5.90;;;15.60;99.90;;;;;;5016605;28;20430;-57
2021/05/30 04:31:16;;;;;;;6.03;5.45;;;15.60;99.90;;;;;;5016501;28;20490;-54
2021/05/30 04:33:43;;;;;;;9.23;6.20;;;15.60;99.90;;;;;;5016548;28;20423;-56
2021/05/30 04:36:10;;;;;;;7.40;6.60;;;15.40;99.90;;;;;;5016673;28;20096;-56
2021/05/30 04:38:38;;;;;;;7.28;6.05;;;15.40;99.90;;;;;;5016483;28;20076;-54
2021/05/30 04:41:05;;;;;;;6.90;6.32;;;15.40;99.90;;;;;;5016157;28;20038;-54
2021/05/30 04:43:32;;;;;;;6.85;6.13;;;15.20;99.90;;;;;;5016247;28;20053;-54
2021/05/30 04:46:01;;;;;;;7.32;6.63;;;15.10;99.90;;;;;;5016387;28;20482;-53
2021/05/30 04:48:29;;;;;;;7.28;6.70;;;15.00;99.90;;;;;;5016192;28;20026;-54
2021/05/30 04:51:05;;;;;;;8.20;7.63;;;15.00;99.90;;;;;;5016107;28;20112;-56
2021/05/30 04:53:39;;;;;;;8.70;8.00;;;15.10;99.90;;;;;;5016088;28;20105;-54
2021/05/30 04:56:07;;;;;;;8.40;7.60;;;14.90;99.90;;;;;;5016181;28;20026;-55
2021/05/30 04:58:35;;;;;;;8.75;7.95;;;14.90;99.90;;;;;;5015967;28;20093;-55
2021/05/30 05:01:04;;;;;;;8.77;7.90;;;15.10;99.90;;;;;;5015954;28;20034;-54
2021/05/30 05:03:33;;;;;;;8.75;8.00;;;15.20;99.90;;;;;;5015830;28;20482;-56
2021/05/30 05:06:01;;;;;;;8.35;7.85;;;15.30;99.90;;;;;;5016198;28;20475;-56
2021/05/30 05:08:28;;;;;;;8.60;7.80;;;15.40;99.90;;;;;;5015937;28;20044;-50
2021/05/30 05:10:56;;;;;;;7.32;6.70;;;15.40;99.90;;;;;;5015849;28;20072;-51
2021/05/30 05:13:23;;;;;;;7.95;7.20;;;15.30;99.90;;;;;;5015800;28;20080;-55
2021/05/30 05:15:54;;;;;;;6.50;6.00;;;15.40;99.90;;;;;;5015847;28;20406;-60
2021/05/30 05:18:23;;;;;;;7.00;6.32;;;15.20;99.90;;;;;;5016337;28;20032;-61
2021/05/30 05:20:51;;;;;;;7.95;6.15;;;15.20;99.90;;;;;;5016178;28;20030;-60
2021/05/30 05:23:24;;;;;;;7.90;7.07;;;15.10;99.90;;;;;;5015799;28;20022;-61
2021/05/30 05:25:54;;;;;;;7.00;6.50;;;14.80;99.90;;;;;;5016460;28;20022;-62
2021/05/30 05:28:22;;;;;;;8.75;7.47;;;14.90;99.90;;;;;;5015491;28;20057;-60
2021/05/30 05:30:54;;;;;;;8.60;6.50;;;15.10;99.90;;;;;;5017371;28;20048;-61
2021/05/30 05:33:22;;;;;;;15.10;6.63;;;15.10;99.90;;;;;;5007863;28;20526;-59
2021/05/30 05:35:50;;;;;;;7.38;6.68;;;15.10;99.90;;;;;;5015576;28;20014;-59
2021/05/30 05:38:18;;;;;;;7.15;5.90;;;15.10;99.90;;;;;;5015547;28;20029;-62
2021/05/30 05:40:45;;;;;;;6.93;6.15;;;15.10;99.90;;;;;;5015558;28;20073;-58
2021/05/30 05:43:13;;;;;;;8.45;5.82;;;15.10;99.90;;;;;;5015436;28;20029;-62
2021/05/30 05:45:40;;;;;;;5.75;5.05;;;15.00;99.90;;;;;;5018040;28;20517;-60
2021/05/30 05:48:16;;;;;;;8.88;6.30;;;14.90;99.90;;;;;;5017137;28;20133;-61
2021/05/30 05:50:45;;;;;;;7.07;6.47;;;14.90;99.90;;;;;;4999142;28;20029;-62
2021/05/30 05:53:13;;;;;;;7.32;6.65;;;14.90;99.90;;;;;;5015214;28;20387;-60
2021/05/30 05:55:40;;;;;;;10.48;6.72;;;14.90;99.90;;;;;;5016117;28;20116;-61
2021/05/30 05:58:11;;;;;;;9.20;7.20;;;15.00;99.90;;;;;;5015344;28;20030;-61
2021/05/30 06:00:39;;;;;;;9.10;7.43;;;14.90;99.90;;;;;;5016486;28;20018;-58
2021/05/30 06:03:06;;;;;;;8.73;6.50;;;15.00;99.90;;;;;;4997467;28;20446;-61
2021/05/30 06:05:34;;;;;;;8.80;6.75;;;15.00;99.90;;;;;;5016796;28;20181;-57
2021/05/30 06:08:01;;;;;;;12.07;6.63;;;14.90;99.90;;;;;;5015274;28;20026;-62
2021/05/30 06:10:29;;;;;;;7.78;7.00;;;14.90;99.90;;;;;;5014580;28;20033;-57
2021/05/30 06:12:59;;;;;;;7.22;6.70;;;14.80;99.90;;;;;;5014796;28;20030;-59
2021/05/30 06:15:28;;;;;;;15.30;7.50;;;14.80;99.90;;;;;;5014474;28;20064;-61
2021/05/30 06:18:16;;;;;;;6.90;6.28;;;14.70;99.90;;;;;;5014675;28;20040;-61
2021/05/30 06:20:46;;;;;;;7.45;6.68;;;14.70;99.90;;;;;;4997113;28;20046;-60
2021/05/30 06:23:14;;;;;;;7.90;6.30;;;14.70;99.90;;;;;;5014809;28;20092;-59
2021/05/30 06:25:51;;;;;;;7.95;6.25;;;14.70;99.90;;;;;;4996913;28;20386;-58
2021/05/30 06:28:19;;;;;;;10.38;6.60;;;14.60;99.90;;;;;;5014530;28;20029;-58
2021/05/30 06:30:46;;;;;;;8.50;7.47;;;14.60;99.90;;;;;;5014401;28;20479;-59
2021/05/30 06:33:14;;;;;;;7.15;6.47;;;14.50;99.90;;;;;;5014282;28;20022;-60
2021/05/30 06:35:43;;;;;;;8.50;7.70;;;14.50;99.90;;;;;;5014779;28;20501;-60
2021/05/30 06:38:11;;;;;;;7.75;7.07;;;14.50;99.90;;;;;;5014724;28;20026;-58
2021/05/30 06:40:40;;;;;;;10.32;7.10;;;14.40;99.90;;;;;;5014125;28;20030;-60
2021/05/30 06:43:12;;;;;;;10.63;6.90;;;14.40;99.90;;;;;;5014141;28;20050;-59
2021/05/30 06:45:42;;;;;;;8.13;7.15;;;14.40;99.90;;;;;;5014063;28;20085;-60
2021/05/30 06:48:10;;;;;;;9.48;6.80;;;14.40;99.90;;;;;;5015184;28;20022;-62
2021/05/30 06:50:37;;;;;;;7.93;7.05;;;14.40;99.90;;;;;;5014261;28;20097;-56
2021/05/30 06:53:05;;;;;;;7.13;6.47;;;14.40;99.90;;;;;;5014053;28;20076;-57
2021/05/30 06:55:32;;;;;;;11.07;7.20;;;14.40;99.90;;;;;;5014089;28;20018;-61
2021/05/30 06:58:00;;;;;;;8.27;7.43;;;14.40;99.90;;;;;;5013867;28;20169;-59
2021/05/30 07:00:27;;;;;;;8.57;6.60;;;14.40;99.90;;;;;;5013678;28;20044;-57
2021/05/30 07:02:54;;;;;;;7.30;6.60;;;14.30;99.90;;;;;;5014025;28;20044;-59
2021/05/30 07:05:22;;;;;;;6.60;5.93;;;14.30;99.90;;;;;;5013893;28;20057;-59
2021/05/30 07:07:50;;;;;;;6.82;5.35;;;14.40;99.90;;;;;;5013684;28;20109;-61
2021/05/30 07:10:17;;;;;;;7.43;5.50;;;14.40;99.90;;;;;;5013584;28;20032;-60
2021/05/30 07:12:45;;;;;;;7.07;5.35;;;14.40;99.90;;;;;;4996211;28;20022;-59
2021/05/30 07:15:13;;;;;;;7.85;5.80;;;14.40;99.90;;;;;;4996037;28;20088;-58
2021/05/30 07:17:40;;;;;;;6.32;5.80;;;14.40;99.90;;;;;;5013632;28;20023;-61
2021/05/30 07:20:08;;;;;;;8.35;5.72;;;14.40;99.90;;;;;;5013493;28;20105;-60
2021/05/30 07:22:37;;;;;;;7.20;5.82;;;14.40;99.90;;;;;;5013479;28;20037;-60
2021/05/30 07:25:08;;;;;;;6.32;5.00;;;14.40;99.90;;;;;;5013730;28;20034;-60
2021/05/30 07:27:36;;;;;;;7.57;5.30;;;14.40;99.90;;;;;;5013903;28;20045;-57
2021/05/30 07:30:08;;;;;;;9.75;6.15;;;14.40;99.90;;;;;;5013493;28;20025;-59
2021/05/30 07:32:36;;;;;;;10.80;6.22;;;14.30;99.90;;;;;;5013572;28;20391;-60
2021/05/30 07:35:04;;;;;;;8.30;6.07;;;14.40;99.90;;;;;;5013510;28;20025;-58
2021/05/30 07:37:32;;;;;;;7.45;6.57;;;14.40;99.90;;;;;;5013096;28;20030;-59
2021/05/30 07:39:59;;;;;;;12.45;7.50;;;14.40;99.90;;;;;;5013513;28;20030;-60
2021/05/30 07:42:27;;;;;;;7.07;6.45;;;14.50;99.90;;;;;;5013023;28;20395;-59
2021/05/30 07:45:03;;;;;;;7.28;6.68;;;14.40;99.90;;;;;;5012998;28;20029;-56
2021/05/30 07:47:34;;;;;;;11.13;6.43;;;14.40;99.90;;;;;;5013301;28;20475;-56
2021/05/30 07:50:04;;;;;;;8.15;6.63;;;14.40;99.90;;;;;;5013429;28;20025;-59
2021/05/30 07:52:32;;;;;;;10.05;6.20;;;14.40;99.90;;;;;;5013308;28;20026;-59
2021/05/30 07:54:59;;;;;;;10.60;6.65;;;14.40;99.90;;;;;;5012822;28;20030;-61
2021/05/30 07:57:29;;;;;;;7.72;6.20;;;14.40;99.90;;;;;;5013190;28;20077;-60
2021/05/30 07:59:57;;;;;;;8.27;6.60;;;14.40;99.90;;;;;;5013209;28;20041;-51
2021/05/30 08:02:25;;;;;;;9.23;6.90;;;14.40;99.90;;;;;;5012550;28;20483;-54
2021/05/30 08:04:54;;;;;;;9.10;6.68;;;14.40;99.90;;;;;;5012697;28;20014;-52
2021/05/30 08:07:21;;;;;;;9.57;6.47;;;14.30;99.90;;;;;;5012895;28;20023;-54
2021/05/30 08:09:49;;;;;;;9.57;6.82;;;14.30;99.90;;;;;;5012814;28;20025;-54
2021/05/30 08:12:16;;;;;;;9.63;6.90;;;14.30;99.90;;;;;;5012838;28;20058;-51
2021/05/30 08:14:44;;;;;;;12.07;6.38;;;14.30;99.90;;;;;;5012970;28;20026;-53
2021/05/30 08:17:11;;;;;;;7.75;5.72;;;14.30;99.90;;;;;;5012724;28;20394;-55
2021/05/30 08:19:38;;;;;;;7.32;6.47;;;14.30;99.90;;;;;;5012661;28;20026;-54
2021/05/30 08:22:08;;;;;;;7.22;6.20;;;14.30;99.90;;;;;;5012480;28;20538;-55
2021/05/30 08:24:37;;;;;;;6.63;6.03;;;14.20;99.90;;;;;;5012517;28;20077;-52
2021/05/30 08:27:05;;;;;;;9.85;7.00;;;14.20;99.90;;;;;;5012564;28;20034;-54
2021/05/30 08:29:32;;;;;;;8.65;5.95;;;14.20;99.90;;;;;;5012796;28;20114;-56
2021/05/30 08:32:01;;;;;;;6.85;6.13;;;14.20;99.90;;;;;;5012630;28;20018;-51
2021/05/30 08:34:29;;;;;;;7.63;6.80;;;14.20;99.90;;;;;;5012507;28;20030;-50
2021/05/30 08:36:56;;;;;;;10.38;8.40;;;14.20;99.90;;;;;;5012497;28;20117;-54
2021/05/30 08:39:24;;;;;;;12.00;8.85;;;14.10;99.90;;;;;;5012454;28;20026;-55
2021/05/30 08:41:51;;;;;;;8.07;6.80;;;14.10;99.90;;;;;;5012543;28;20033;-55
2021/05/30 08:44:19;;;;;;;7.68;6.75;;;14.00;99.90;;;;;;5012642;28;20025;-55
2021/05/30 08:46:46;;;;;;;9.98;6.70;;;14.00;99.90;;;;;;5012502;28;20478;-52
2021/05/30 08:49:13;;;;;;;7.93;6.90;;;14.00;99.90;;;;;;5013275;28;20018;-50
2021/05/30 08:51:42;;;;;;;7.40;6.47;;;14.00;99.90;;;;;;5016094;28;20033;-52
2021/05/30 08:54:12;;;;;;;11.88;7.38;;;14.00;99.90;;;;;;5015892;28;20052;-50
2021/05/30 08:56:42;;;;;;;7.45;6.75;;;14.00;99.90;;;;;;5015891;28;20030;-55
2021/05/30 08:59:28;;;;;;;8.45;6.40;;;14.00;99.90;;;;;;5015629;28;20057;-55
2021/05/30 09:02:24;;;;;;;10.25;7.25;;;14.10;99.90;;;;;;5016157;28;20038;-55
2021/05/30 09:04:56;;;;;;;9.57;7.05;;;14.10;99.90;;;;;;5015561;28;20042;-58
2021/05/30 09:07:43;;;;;;;6.97;6.28;;;14.10;99.90;;;;;;5015883;28;20029;-55
2021/05/30 09:10:18;;;;;;;7.35;6.43;;;14.10;99.90;;;;;;5015511;28;20018;-55
2021/05/30 09:12:46;;;;;;;10.35;6.93;;;14.20;99.90;;;;;;5015450;28;20033;-54
2021/05/30 09:15:27;;;;;;;8.50;7.13;;;14.10;99.90;;;;;;5015704;28;20036;-55
2021/05/30 09:18:35;;;;;;;7.95;7.25;;;14.10;99.90;;;;;;5015531;28;20034;-54
2021/05/30 09:21:12;;;;;;;10.02;6.97;;;14.10;99.90;;;;;;4936061;29;20118;-53
2021/05/30 09:23:41;;;;;;;8.23;7.25;;;14.20;99.90;;;;;;4935952;29;20036;-55
2021/05/30 09:26:18;;;;;;;7.65;6.75;;;14.20;99.90;;;;;;4982526;28;20034;-54
2021/05/30 09:29:11;;;;;;;10.95;7.38;;;14.20;99.90;;;;;;5015283;28;20022;-53
2021/05/30 09:31:55;;;;;;;8.40;7.32;;;14.10;99.90;;;;;;5015286;28;20022;-55
2021/05/30 09:34:34;;;;;;;7.72;7.00;;;14.20;99.90;;;;;;5014930;28;20182;-50
2021/05/30 09:37:02;;;;;;;7.45;6.32;;;14.10;99.90;;;;;;5015181;28;20058;-51
2021/05/30 09:39:38;;;;;;;7.03;6.30;;;14.10;99.90;;;;;;5015248;28;20113;-54
2021/05/30 09:42:25;;;;;;;8.32;6.00;;;14.10;99.90;;;;;;5015124;28;20545;-55
2021/05/30 09:44:57;;;;;;;6.72;6.00;;;14.10;99.90;;;;;;5015121;28;20029;-55
2021/05/30 09:47:35;;;;;;;11.85;9.50;;;14.10;99.90;;;;;;5015098;28;20030;-54
2021/05/30 09:50:04;;;;;;;7.70;6.97;;;14.10;99.90;;;;;;5014830;28;20030;-54
2021/05/30 09:52:44;;;;;;;11.18;5.80;;;14.10;99.90;;;;;;5015005;28;20025;-55
2021/05/30 09:55:20;;;;;;;6.57;5.88;;;14.10;99.90;;;;;;5014926;28;20066;-53
2021/05/30 09:58:19;;;;;;;7.15;6.50;;;14.10;99.90;;;;;;5014677;28;20034;-51
2021/05/30 10:00:52;;;;;;;6.20;5.60;;;14.10;99.90;;;;;;5014205;28;20403;-55
2021/05/30 10:03:20;;;;;;;6.60;5.70;;;14.10;99.90;;;;;;5014814;28;20397;-55
2021/05/30 10:05:47;;;;;;;7.57;6.22;;;14.10;99.90;;;;;;5014692;28;20444;-55
2021/05/30 10:08:16;;;;;;;7.35;6.50;;;14.20;99.90;;;;;;5014660;28;20025;-51
2021/05/30 10:10:44;;;;;;;7.45;6.78;;;14.10;99.90;;;;;;5014613;28;20022;-53
2021/05/30 10:13:12;;;;;;;7.00;6.30;;;14.10;99.90;;;;;;5014593;28;20029;-55
2021/05/30 10:15:39;;;;;;;6.80;6.00;;;14.10;99.90;;;;;;5014723;28;20450;-56
2021/05/30 10:18:42;;;;;;;7.30;6.70;;;14.20;99.90;;;;;;5014436;28;20022;-55
2021/05/30 10:21:16;;;;;;;6.90;5.43;;;14.20;99.90;;;;;;4983018;28;20046;-55
2021/05/30 10:23:45;;;;;;;5.03;4.53;;;14.10;99.90;;;;;;5014535;28;20018;-55
2021/05/30 10:26:23;;;;;;;6.35;5.75;;;14.20;99.90;;;;;;5014502;28;20025;-55
2021/05/30 10:28:55;;;;;;;6.03;5.47;;;14.10;99.90;;;;;;5014320;28;20486;-55
2021/05/30 10:31:34;;;;;;;5.22;4.72;;;14.10;99.90;;;;;;5014270;28;20049;-55
2021/05/30 10:34:11;;;;;;;5.28;4.88;;;14.10;99.90;;;;;;5014109;28;20084;-55
2021/05/30 10:37:05;;;;;;;5.63;4.80;;;14.10;99.90;;;;;;5014071;28;20036;-54
2021/05/30 10:39:36;;;;;;;5.28;4.78;;;14.10;99.90;;;;;;5007522;28;20091;-50
2021/05/30 10:42:13;;;;;;;5.10;4.65;;;14.00;99.90;;;;;;5014023;28;20030;-51
2021/05/30 10:44:54;;;;;;;4.72;4.40;;;14.00;99.90;;;;;;5014052;28;20029;-51
2021/05/30 10:47:21;;;;;;;;;;;13.90;99.90;;;;;;5014397;28;20463;-55
2021/05/30 10:50:12;;;;;;;4.90;4.43;;;13.80;99.90;;;;;;5014018;28;19913;-51
2021/05/30 10:52:41;;;;;;;6.38;5.78;;;13.60;99.90;;;;;;5013967;28;20393;-54
2021/05/30 10:55:11;;;;;;;5.63;5.10;;;13.50;99.90;;;;;;5013901;28;20076;-55
2021/05/30 10:57:42;;;;;;;5.28;4.70;;;13.40;99.90;;;;;;5013585;28;20042;-48
2021/05/30 11:00:21;;;;;;;5.50;5.10;;;13.30;99.90;;;;;;5013186;28;20050;-49
2021/05/30 11:03:07;;;;;;;6.63;6.18;;;13.20;99.90;;;;;;5013230;28;20068;-55
2021/05/30 11:05:56;;;;;;;6.53;6.10;;;13.20;99.90;;;;;;5013643;28;20360;-55
2021/05/30 11:08:30;;;;;;;6.85;6.40;;;13.20;99.90;;;;;;5013403;28;20029;-54
2021/05/30 11:11:12;;;;;;;7.10;6.40;;;13.20;99.90;;;;;;5013844;28;20431;-50
2021/05/30 11:14:13;;;;;;;5.47;5.15;;;13.20;99.90;;;;;;5012822;28;20032;-55
2021/05/30 11:16:46;;;;;;;6.85;6.25;;;13.10;99.90;;;;;;4999436;28;20042;-54
2021/05/30 11:19:19;;;;;;;6.70;6.10;;;13.00;99.90;;;;;;5013443;28;20022;-55
2021/05/30 11:21:49;;;;;;;6.00;5.60;;;12.90;99.90;;;;;;5013538;28;20025;-55
2021/05/30 11:24:17;;;;;;;6.38;5.90;;;12.90;99.90;;;;;;5013480;28;20022;-54
2021/05/30 11:27:08;;;;;;;6.25;5.72;;;12.80;99.90;;;;;;5013309;28;20021;-55
2021/05/30 11:29:35;;;;;;;6.85;6.45;;;12.70;99.90;;;;;;5005889;28;20129;-54
2021/05/30 11:32:04;;;;;;;5.78;5.38;;;12.70;99.90;;;;;;5013373;28;20053;-53
2021/05/30 11:34:35;;;;;;;5.55;5.15;;;12.60;99.90;;;;;;5013321;28;20390;-53
2021/05/30 11:37:10;;;;;;;6.32;5.82;;;12.50;99.90;;;;;;5013075;28;20055;-54
2021/05/30 11:39:42;;;;;;;6.13;5.63;;;12.50;99.90;;;;;;5013091;28;20038;-54
2021/05/30 11:42:10;;;;;;;6.68;6.13;;;12.40;99.90;;;;;;5012993;28;20018;-55
2021/05/30 11:44:38;;;;;;;6.32;5.80;;;12.40;99.90;;;;;;5013063;28;20101;-56
2021/05/30 11:47:09;;;;;;;5.45;4.95;;;12.40;99.90;;;;;;5012881;28;20022;-55
2021/05/30 11:49:42;;;;;;;5.65;5.32;;;12.40;99.90;;;;;;5013047;28;20471;-54
2021/05/30 11:52:19;;;;;;;5.30;5.00;;;12.40;99.90;;;;;;5012895;28;20109;-56
2021/05/30 11:54:52;;;;;;;5.45;5.05;;;12.40;99.90;;;;;;5012960;28;20084;-55
2021/05/30 11:57:26;;;;;;;5.40;5.10;;;12.40;99.90;;;;;;5012878;28;20403;-55
2021/05/30 11:59:54;;;;;;;5.57;5.18;;;12.20;99.90;;;;;;5012596;28;20057;-51
2021/05/30 12:02:29;;;;;;;4.85;4.50;;;12.10;99.90;;;;;;5012786;28;20058;-56
2021/05/30 12:05:12;;;;;;;5.18;4.90;;;12.20;99.90;;;;;;5013099;28;20481;-55
2021/05/30 12:07:40;;;;;;;5.88;5.40;;;12.20;99.90;;;;;;5013010;28;20088;-54
2021/05/30 12:10:12;;;;;;;5.85;5.55;;;12.20;99.90;;;;;;5013162;28;20462;-52
2021/05/30 12:12:48;;;;;;;5.93;5.63;;;12.20;99.90;;;;;;5012596;28;20499;-54
2021/05/30 12:15:27;;;;;;;5.57;5.28;;;12.20;99.90;;;;;;4995170;28;20025;-55
2021/05/30 12:18:06;;;;;;;5.88;5.45;;;12.30;99.90;;;;;;5012881;28;20037;-54
2021/05/30 12:20:38;;;;;;;6.70;6.20;;;12.20;99.90;;;;;;5012566;28;20426;-54
2021/05/30 12:23:21;;;;;;;6.40;6.00;;;12.20;99.90;;;;;;5012319;28;20041;-55
2021/05/30 12:25:51;;;;;;;6.60;6.20;;;12.20;99.90;;;;;;5016732;28;20026;-54
2021/05/30 12:28:19;;;;;;;6.55;6.10;;;12.20;99.90;;;;;;5016531;28;20022;-55
2021/05/30 12:30:51;;;;;;;6.18;5.88;;;12.20;99.90;;;;;;5016963;28;20040;-60
2021/05/30 12:33:20;;;;;;;6.25;5.90;;;12.20;99.90;;;;;;5016796;28;20018;-61
2021/05/30 12:35:56;;;;;;;6.70;6.13;;;12.20;99.90;;;;;;5016728;28;20430;-60
2021/05/30 12:38:29;;;;;;;5.95;5.45;;;12.30;99.90;;;;;;5016635;28;20443;-59
2021/05/30 12:40:57;;;;;;;5.63;5.32;;;12.30;99.90;;;;;;5016368;28;20026;-60
2021/05/30 12:43:35;;;;;;;5.32;5.10;;;12.30;99.90;;;;;;5016436;28;20026;-59
2021/05/30 12:46:09;;;;;;;6.00;5.70;;;12.40;99.90;;;;;;5016320;28;20026;-56
2021/05/30 12:48:44;;;;;;;5.90;5.60;;;12.50;99.90;;;;;;5016330;28;20030;-60
2021/05/30 12:51:26;;;;;;;6.75;6.15;;;12.40;99.90;;;;;;5016327;28;20037;-60
2021/05/30 12:53:54;;;;;;;6.57;6.10;;;12.40;99.90;;;;;;5016271;28;20033;-59
2021/05/30 12:56:24;;;;;;;5.70;5.45;;;12.40;99.90;;;;;;5016227;28;20021;-57
2021/05/30 12:59:19;;;;;;;6.07;5.68;;;12.30;99.90;;;;;;5016080;28;20515;-60
2021/05/30 13:01:52;;;;;;;6.22;5.85;;;12.30;99.90;;;;;;5015985;28;20431;-61
2021/05/30 13:04:44;;;;;;;5.95;5.55;;;12.30;99.90;;;;;;5015854;28;20030;-59
2021/05/30 13:07:18;;;;;;;5.60;5.22;;;12.30;99.90;;;;;;5016154;28;20543;-57